NOTL Irvine Rd

*Note: All times are displayed in the local standard time of the station location.
**Rain - Equipment is designed to accurately record liquid precipitation; under conditions when precipitation is not in liquid form, the data displayed may not properly reflect rainfall values.

Date Max Temp
(°C)
Min Temp
(°C)
Avg Temp
(°C)
Rain (mm) Avg RH (%)
Mon, Apr 23, 2018 16.2 0.1 8.1 0.0 56.2
Sun, Apr 22, 2018 16.6 -1.6 7.7 0.0 48.2
Sat, Apr 21, 2018 13.7 -2.1 6.1 0.0 51.2
Fri, Apr 20, 2018 8.1 -0.4 3.0 0.0 56.3
Thu, Apr 19, 2018 4.1 0.9 2.2 0.0 66.5
Wed, Apr 18, 2018 4.0 0.6 2.3 0.2 73.9
Tue, Apr 17, 2018 1.3 -1.0 0.6 0.2 73.5
DateTime Avg Temp (°C) Rain (mm) RH (%)
Tue, Apr 24, 2018 18:00 12.7 0.6 79.3
Tue, Apr 24, 2018 17:00 13.5 0.0 64.5
Tue, Apr 24, 2018 16:00 11.6 0.0 62.5
Tue, Apr 24, 2018 15:00 12.2 0.0 60.5
Tue, Apr 24, 2018 14:00 13.9 0.0 53.8
Tue, Apr 24, 2018 13:00 18.0 0.0 39.5
Tue, Apr 24, 2018 12:00 16.3 0.0 42.8
Tue, Apr 24, 2018 11:00 14.7 0.0 54.0
Tue, Apr 24, 2018 10:00 14.0 0.0 58.5
Tue, Apr 24, 2018 09:00 13.6 0.0 56.8
Tue, Apr 24, 2018 08:00 11.6 0.0 64.3
Tue, Apr 24, 2018 07:00 9.9 0.0 67.3
Tue, Apr 24, 2018 06:00 9.0 0.0 69.0
Tue, Apr 24, 2018 05:00 5.2 0.0 77.3
Tue, Apr 24, 2018 04:00 4.1 0.0 81.8
Tue, Apr 24, 2018 03:00 4.8 0.0 76.8
Tue, Apr 24, 2018 02:00 4.7 0.0 79.0
Tue, Apr 24, 2018 01:00 4.5 0.0 78.8
Tue, Apr 24, 2018 00:00 4.6 0.0 78.5
Mon, Apr 23, 2018 23:00 4.9 0.0 78.0
Mon, Apr 23, 2018 22:00 5.6 0.0 75.5
Mon, Apr 23, 2018 21:00 6.3 0.0 67.5
Mon, Apr 23, 2018 20:00 9.5 0.0 51.8
Mon, Apr 23, 2018 19:00 11.8 0.0 41.5
Mon, Apr 23, 2018 18:00 13.6 0.0 37.3
Mon, Apr 23, 2018 17:00 15.9 0.0 28.3
Mon, Apr 23, 2018 16:00 15.6 0.0 31.3
Mon, Apr 23, 2018 15:00 14.5 0.0 34.0
Mon, Apr 23, 2018 14:00 13.8 0.0 39.3
Mon, Apr 23, 2018 13:00 13.0 0.0 42.8
Mon, Apr 23, 2018 12:00 14.2 0.0 40.8
Mon, Apr 23, 2018 11:00 13.7 0.0 43.8
Mon, Apr 23, 2018 10:00 11.8 0.0 47.3
Mon, Apr 23, 2018 09:00 8.8 0.0 53.5
Mon, Apr 23, 2018 08:00 4.7 0.0 67.3
Mon, Apr 23, 2018 07:00 0.6 0.0 77.3
Mon, Apr 23, 2018 06:00 0.8 0.0 73.3
Mon, Apr 23, 2018 05:00 1.8 0.0 67.0
Mon, Apr 23, 2018 04:00 1.1 0.0 74.0
Mon, Apr 23, 2018 03:00 1.8 0.0 68.5
Mon, Apr 23, 2018 02:00 2.9 0.0 65.0
Mon, Apr 23, 2018 01:00 2.9 0.0 65.3
Mon, Apr 23, 2018 00:00 4.2 0.0 60.5
Sun, Apr 22, 2018 23:00 7.0 0.0 48.8
Sun, Apr 22, 2018 22:00 7.5 0.0 48.0
Sun, Apr 22, 2018 21:00 9.4 0.0 36.5
Sun, Apr 22, 2018 20:00 14.0 0.0 24.0
Sun, Apr 22, 2018 19:00 16.2 0.0 19.5


asterix Register now to access more data! asterix